createdAt,value
2017-03-28T00:00:39.743Z,4.20
2017-03-28T00:01:38.583Z,4.10
2017-03-28T00:02:37.063Z,4.20
2017-03-28T00:03:36.313Z,4.20
2017-03-28T00:04:34.777Z,4.10
2017-03-28T00:05:33.257Z,4.10
2017-03-28T00:06:31.723Z,4.10
2017-03-28T00:07:30.510Z,4.10
2017-03-28T00:08:29.818Z,4.10
2017-03-28T00:09:28.316Z,4.00
2017-03-28T00:10:26.794Z,4.10
2017-03-28T00:11:26.064Z,4.10
2017-03-28T00:12:25.329Z,4.10
2017-03-28T00:13:24.970Z,4.10
2017-03-28T00:14:23.443Z,4.00
2017-03-28T00:15:22.241Z,4.10
2017-03-28T00:16:21.742Z,4.10
2017-03-28T00:17:20.203Z,4.00
2017-03-28T00:18:18.691Z,4.00
2017-03-28T00:19:18.284Z,4.10
2017-03-28T00:20:17.523Z,4.00
2017-03-28T00:21:15.997Z,4.00
2017-03-28T00:22:14.478Z,4.00
2017-03-28T00:23:14.339Z,4.00
2017-03-28T00:24:12.802Z,3.90
2017-03-28T00:25:12.415Z,4.00
2017-03-28T00:26:10.904Z,4.00
2017-03-28T00:27:10.121Z,4.00
2017-03-28T00:28:08.616Z,3.90
2017-03-28T00:29:07.135Z,3.90
2017-03-28T00:30:06.469Z,3.90
2017-03-28T00:31:05.561Z,3.90
2017-03-28T00:32:04.040Z,3.90
2017-03-28T00:33:03.363Z,3.80
2017-03-28T00:34:01.936Z,3.80
2017-03-28T00:35:00.422Z,3.80
2017-03-28T00:35:59.712Z,3.80
2017-03-28T00:36:58.579Z,3.80
2017-03-28T00:37:57.067Z,3.80
2017-03-28T00:38:55.549Z,3.80
2017-03-28T00:39:54.860Z,3.70
2017-03-28T00:40:53.330Z,3.70
2017-03-28T00:41:51.806Z,3.70
2017-03-28T00:42:50.593Z,3.70
2017-03-28T00:43:49.836Z,3.70
2017-03-28T00:44:48.305Z,3.60
2017-03-28T00:45:47.541Z,3.70
2017-03-28T00:46:46.036Z,3.60
2017-03-28T00:47:45.278Z,3.70
2017-03-28T00:48:44.041Z,3.60
2017-03-28T00:49:43.280Z,3.70
2017-03-28T00:50:42.512Z,3.70
2017-03-28T00:51:41.749Z,3.70
2017-03-28T00:52:40.989Z,3.70
2017-03-28T00:53:39.480Z,3.70
2017-03-28T00:54:39.017Z,3.70
2017-03-28T00:55:37.502Z,3.60
2017-03-28T00:56:35.973Z,3.70
2017-03-28T00:57:34.449Z,3.70
2017-03-28T00:58:32.913Z,3.70
2017-03-28T00:59:31.438Z,3.70
2017-03-28T01:00:30.179Z,3.70
2017-03-28T01:01:29.464Z,3.60
2017-03-28T01:02:28.745Z,3.60
2017-03-28T01:03:27.327Z,3.60
2017-03-28T01:04:26.565Z,3.70
2017-03-28T01:05:25.826Z,3.70
2017-03-28T01:06:24.623Z,3.70
2017-03-28T01:07:23.109Z,3.70
2017-03-28T01:08:22.337Z,3.70
2017-03-28T01:09:20.841Z,3.60
2017-03-28T01:10:19.308Z,3.70
2017-03-28T01:11:17.805Z,3.70
2017-03-28T01:12:16.722Z,3.70
2017-03-28T01:13:16.160Z,3.60
2017-03-28T01:14:15.413Z,3.60
2017-03-28T01:15:14.552Z,3.60
2017-03-28T01:16:13.054Z,3.60
2017-03-28T01:17:11.551Z,3.60
2017-03-28T01:18:11.211Z,3.50
2017-03-28T01:19:09.694Z,3.50
2017-03-28T01:20:08.944Z,3.50
2017-03-28T01:21:07.451Z,3.40
2017-03-28T01:22:06.716Z,3.50
2017-03-28T01:23:05.209Z,3.40
2017-03-28T01:24:04.851Z,3.50
2017-03-28T01:25:04.100Z,3.50
2017-03-28T01:26:02.597Z,3.50
2017-03-28T01:27:01.088Z,3.50
2017-03-28T01:27:59.547Z,3.50
2017-03-28T01:28:58.169Z,3.60
2017-03-28T01:29:56.965Z,3.60
2017-03-28T01:30:55.497Z,3.60
2017-03-28T01:31:54.729Z,3.70
2017-03-28T01:32:53.210Z,3.60
2017-03-28T01:33:51.739Z,3.60
2017-03-28T01:34:50.217Z,3.50
2017-03-28T01:35:49.824Z,3.50
2017-03-28T01:36:48.301Z,3.50
2017-03-28T01:37:47.101Z,3.50
2017-03-28T01:38:46.348Z,3.50
2017-03-28T01:39:44.849Z,3.50
2017-03-28T01:40:44.114Z,3.50
2017-03-28T01:41:43.644Z,3.50
2017-03-28T01:42:42.109Z,3.40
2017-03-28T01:43:40.582Z,3.50
2017-03-28T01:44:39.833Z,3.50
2017-03-28T01:45:39.057Z,3.50
2017-03-28T01:46:37.528Z,3.50
2017-03-28T01:47:36.401Z,3.50
2017-03-28T01:48:34.991Z,3.50
2017-03-28T01:49:33.493Z,3.50
2017-03-28T01:50:31.964Z,3.50
2017-03-28T01:51:30.438Z,3.50
2017-03-28T01:52:28.914Z,3.50
2017-03-28T01:53:27.700Z,3.50
2017-03-28T01:54:26.257Z,3.50
2017-03-28T01:55:24.741Z,3.50
2017-03-28T01:56:24.015Z,3.50
2017-03-28T01:57:23.277Z,3.50
2017-03-28T01:58:21.760Z,3.50
2017-03-28T01:59:20.534Z,3.50
2017-03-28T02:00:19.052Z,3.40
2017-03-28T02:01:18.317Z,3.40
2017-03-28T02:02:18.325Z,3.30
2017-03-28T02:03:17.662Z,3.40
2017-03-28T02:04:16.917Z,3.40
2017-03-28T02:05:16.070Z,3.30
2017-03-28T02:06:14.604Z,3.40
2017-03-28T02:07:13.861Z,3.40
2017-03-28T02:08:13.158Z,3.40
2017-03-28T02:09:11.685Z,3.40
2017-03-28T02:10:11.004Z,3.40
2017-03-28T02:11:09.756Z,3.30
2017-03-28T02:12:08.456Z,3.30
2017-03-28T02:13:07.705Z,3.30
2017-03-28T02:14:06.229Z,3.30
2017-03-28T02:15:04.694Z,3.30
2017-03-28T02:16:03.165Z,3.30
2017-03-28T02:17:01.917Z,3.40
2017-03-28T02:18:00.405Z,3.40
2017-03-28T02:18:58.861Z,3.30
2017-03-28T02:19:58.092Z,3.30
2017-03-28T02:20:57.330Z,3.30
2017-03-28T02:21:55.801Z,3.20
2017-03-28T02:22:55.367Z,3.30
2017-03-28T02:23:53.834Z,3.20
2017-03-28T02:24:52.375Z,3.30
2017-03-28T02:25:50.834Z,3.30
2017-03-28T02:26:50.074Z,3.30
2017-03-28T02:27:48.528Z,3.20
2017-03-28T02:28:48.102Z,3.20
2017-03-28T02:29:46.601Z,3.20
2017-03-28T02:30:45.877Z,3.20
2017-03-28T02:31:45.153Z,3.20
2017-03-28T02:32:43.620Z,3.10
2017-03-28T02:33:42.136Z,3.10
2017-03-28T02:34:40.921Z,3.10
2017-03-28T02:35:39.435Z,3.10
2017-03-28T02:36:38.704Z,3.10
2017-03-28T02:37:37.961Z,3.10
2017-03-28T02:38:36.420Z,3.00
2017-03-28T02:39:34.911Z,3.10
2017-03-28T02:40:34.500Z,3.00
2017-03-28T02:41:33.788Z,3.00
2017-03-28T02:42:33.044Z,3.00
2017-03-28T02:43:31.514Z,2.90
2017-03-28T02:44:29.994Z,3.00
2017-03-28T02:45:28.519Z,3.00
2017-03-28T02:46:27.308Z,3.00
2017-03-28T02:47:25.834Z,3.00
2017-03-28T02:48:25.064Z,2.90
2017-03-28T02:49:23.532Z,2.90
2017-03-28T02:50:22.029Z,2.90
2017-03-28T02:51:21.273Z,2.90
2017-03-28T02:52:20.876Z,2.90
2017-03-28T02:53:19.373Z,2.90
2017-03-28T02:54:17.849Z,2.90
2017-03-28T02:55:17.125Z,3.00
2017-03-28T02:56:16.370Z,2.90
2017-03-28T02:57:14.829Z,2.90
2017-03-28T02:58:13.621Z,2.90
2017-03-28T02:59:12.109Z,2.90
2017-03-28T03:00:10.587Z,2.90
2017-03-28T03:01:09.817Z,2.90
2017-03-28T03:02:08.288Z,2.80
2017-03-28T03:03:07.601Z,2.90
2017-03-28T03:04:07.147Z,2.90
2017-03-28T03:05:06.696Z,2.90
2017-03-28T03:06:05.928Z,2.90
2017-03-28T03:07:05.201Z,2.80
2017-03-28T03:08:03.694Z,2.80
2017-03-28T03:09:02.170Z,2.80
2017-03-28T03:10:01.021Z,2.90
2017-03-28T03:10:59.516Z,2.90
2017-03-28T03:11:58.764Z,2.90
2017-03-28T03:12:57.238Z,2.80
2017-03-28T03:13:55.707Z,2.90
2017-03-28T03:14:54.206Z,3.00
2017-03-28T03:15:53.037Z,3.00
2017-03-28T03:16:51.501Z,3.00
2017-03-28T03:17:49.985Z,2.90
2017-03-28T03:18:48.471Z,2.90
2017-03-28T03:19:47.725Z,2.80
2017-03-28T03:20:46.190Z,2.80
2017-03-28T03:21:44.943Z,2.80
2017-03-28T03:22:44.188Z,2.90
2017-03-28T03:23:43.426Z,2.90
2017-03-28T03:24:41.890Z,2.80
2017-03-28T03:25:40.390Z,2.80
2017-03-28T03:26:39.628Z,2.90
2017-03-28T03:27:38.504Z,2.80
2017-03-28T03:28:36.983Z,2.90
2017-03-28T03:29:35.460Z,2.90
2017-03-28T03:30:34.812Z,3.00
2017-03-28T03:31:33.350Z,2.90
2017-03-28T03:32:32.612Z,3.00
2017-03-28T03:33:32.262Z,2.90
2017-03-28T03:34:30.764Z,2.90
2017-03-28T03:35:30.019Z,2.90
2017-03-28T03:36:29.312Z,2.90
2017-03-28T03:37:27.777Z,2.90
2017-03-28T03:38:26.248Z,2.90
2017-03-28T03:39:26.838Z,2.90
2017-03-28T03:40:25.336Z,2.80
2017-03-28T03:41:23.856Z,2.90
2017-03-28T03:42:22.330Z,2.80
2017-03-28T03:43:20.839Z,2.90
2017-03-28T03:44:19.311Z,2.90
2017-03-28T03:45:18.840Z,2.80
2017-03-28T03:46:18.190Z,2.80
2017-03-28T03:47:17.471Z,2.80
2017-03-28T03:48:15.960Z,2.70
2017-03-28T03:49:15.279Z,2.80
2017-03-28T03:50:13.890Z,2.70
2017-03-28T03:51:13.537Z,2.70
2017-03-28T03:52:12.082Z,2.70
2017-03-28T03:53:11.360Z,2.70
2017-03-28T03:54:10.385Z,2.60
2017-03-28T03:55:08.897Z,2.60
2017-03-28T03:56:08.256Z,2.60
2017-03-28T03:57:07.836Z,2.60
2017-03-28T03:58:06.393Z,2.60
2017-03-28T03:59:04.940Z,2.60
2017-03-28T04:00:03.445Z,2.60
2017-03-28T04:01:02.904Z,2.50
2017-03-28T04:02:02.189Z,2.50
2017-03-28T04:03:01.065Z,2.40
2017-03-28T04:04:00.355Z,2.50
2017-03-28T04:04:58.911Z,2.40
2017-03-28T04:05:58.180Z,2.40
2017-03-28T04:06:56.656Z,2.40
2017-03-28T04:07:55.137Z,2.40
2017-03-28T04:08:54.009Z,2.40
2017-03-28T04:09:52.595Z,2.40
2017-03-28T04:10:51.869Z,2.40
2017-03-28T04:11:50.344Z,2.40
2017-03-28T04:12:48.797Z,2.40
2017-03-28T04:13:47.290Z,2.40
2017-03-28T04:14:46.830Z,2.40
2017-03-28T04:15:46.092Z,2.40
2017-03-28T04:16:44.597Z,2.30
2017-03-28T04:17:43.866Z,2.40
2017-03-28T04:18:42.369Z,2.30
2017-03-28T04:19:41.642Z,2.40
2017-03-28T04:20:40.426Z,2.30
2017-03-28T04:21:38.933Z,2.30
2017-03-28T04:22:37.420Z,2.30
2017-03-28T04:23:35.940Z,2.30
2017-03-28T04:24:34.416Z,2.30
2017-03-28T04:25:32.896Z,2.30
2017-03-28T04:26:31.680Z,2.30
2017-03-28T04:27:30.177Z,2.30
2017-03-28T04:28:28.679Z,2.30
2017-03-28T04:29:27.185Z,2.30
2017-03-28T04:30:25.655Z,2.30
2017-03-28T04:31:24.168Z,2.20
2017-03-28T04:32:22.997Z,2.20
2017-03-28T04:33:21.491Z,2.20
2017-03-28T04:34:20.742Z,2.20
2017-03-28T04:35:20.049Z,2.20
2017-03-28T04:36:19.347Z,2.20
2017-03-28T04:37:17.891Z,2.10
2017-03-28T04:38:16.748Z,2.20
2017-03-28T04:39:16.037Z,2.20
2017-03-28T04:40:14.553Z,2.10
2017-03-28T04:41:13.808Z,2.10
2017-03-28T04:42:13.165Z,2.10
2017-03-28T04:43:11.771Z,2.10
2017-03-28T04:44:11.052Z,2.10
2017-03-28T04:45:10.472Z,2.10
2017-03-28T04:46:10.100Z,2.10
2017-03-28T04:47:08.795Z,2.00
2017-03-28T04:48:08.621Z,2.10
2017-03-28T04:49:08.237Z,2.10
2017-03-28T04:50:07.131Z,2.10
2017-03-28T04:51:05.604Z,2.10
2017-03-28T04:52:04.862Z,2.10
2017-03-28T04:53:03.325Z,2.10
2017-03-28T04:54:02.553Z,2.10
2017-03-28T04:55:01.813Z,2.10
2017-03-28T04:56:00.669Z,2.10
2017-03-28T04:56:59.120Z,2.10
2017-03-28T04:57:57.606Z,2.20
2017-03-28T04:58:56.112Z,2.20
2017-03-28T04:59:55.385Z,2.10
2017-03-28T05:00:55.115Z,2.20
2017-03-28T05:01:53.892Z,2.10
2017-03-28T05:02:53.165Z,2.20
2017-03-28T05:03:51.668Z,2.10
2017-03-28T05:04:50.183Z,2.20
2017-03-28T05:05:49.433Z,2.20
2017-03-28T05:06:48.689Z,2.20
2017-03-28T05:07:47.464Z,2.20
2017-03-28T05:08:45.953Z,2.30
2017-03-28T05:09:45.218Z,2.30
2017-03-28T05:10:43.687Z,2.20
2017-03-28T05:11:42.272Z,2.20
2017-03-28T05:12:40.777Z,2.20
2017-03-28T05:13:40.726Z,2.20
2017-03-28T05:14:39.233Z,2.20
2017-03-28T05:15:40.508Z,2.20
2017-03-28T05:16:39.064Z,2.20
2017-03-28T05:17:37.559Z,2.30
2017-03-28T05:18:36.048Z,2.20
2017-03-28T05:19:35.686Z,2.30
2017-03-28T05:20:34.165Z,2.20
2017-03-28T05:21:32.642Z,2.30
2017-03-28T05:22:31.189Z,2.30
2017-03-28T05:23:29.662Z,2.30
2017-03-28T05:24:28.128Z,2.30
2017-03-28T05:25:27.684Z,2.30
2017-03-28T05:26:26.214Z,2.20
2017-03-28T05:27:25.518Z,2.30
2017-03-28T05:28:24.843Z,2.30
2017-03-28T05:29:23.413Z,2.20
2017-03-28T05:30:22.697Z,2.30
2017-03-28T05:31:21.690Z,2.30
2017-03-28T05:32:20.377Z,2.30
2017-03-28T05:33:19.859Z,2.30
2017-03-28T05:34:18.376Z,2.40
2017-03-28T05:35:16.945Z,2.40
2017-03-28T05:36:15.449Z,2.50
2017-03-28T05:37:15.043Z,2.50
2017-03-28T05:38:14.325Z,2.60
2017-03-28T05:39:12.841Z,2.50
2017-03-28T05:40:12.125Z,2.60
2017-03-28T05:41:11.381Z,2.60
2017-03-28T05:42:09.940Z,2.60
2017-03-28T05:43:08.900Z,2.60
2017-03-28T05:44:07.368Z,2.70
2017-03-28T05:45:05.870Z,2.60
2017-03-28T05:46:05.117Z,2.70
2017-03-28T05:47:03.713Z,2.70
2017-03-28T05:48:02.941Z,2.80
2017-03-28T05:49:01.789Z,2.80
2017-03-28T05:50:01.716Z,2.90
2017-03-28T05:51:00.961Z,3.00
2017-03-28T05:51:59.439Z,2.90
2017-03-28T05:52:57.929Z,3.10
2017-03-28T05:53:56.431Z,3.10
2017-03-28T05:54:55.191Z,3.20
2017-03-28T05:55:53.704Z,3.20
2017-03-28T05:56:52.944Z,3.30
2017-03-28T05:57:51.452Z,3.20
2017-03-28T05:58:50.668Z,3.50
2017-03-28T05:59:49.135Z,3.40
2017-03-28T06:00:47.899Z,3.50
2017-03-28T06:01:46.381Z,3.70
2017-03-28T06:02:45.633Z,3.80
2017-03-28T06:03:44.144Z,3.80
2017-03-28T06:04:42.622Z,3.90
2017-03-28T06:05:41.094Z,4.00
2017-03-28T06:06:40.638Z,4.30
2017-03-28T06:07:39.201Z,4.20
2017-03-28T06:08:37.664Z,4.40
2017-03-28T06:09:36.145Z,4.40
2017-03-28T06:10:35.429Z,4.60
2017-03-28T06:11:33.964Z,4.50
2017-03-28T06:12:33.484Z,4.80
2017-03-28T06:13:36.441Z,4.70
2017-03-28T06:14:35.016Z,4.90
2017-03-28T06:15:33.472Z,5.00
2017-03-28T06:16:32.764Z,5.30
2017-03-28T06:17:31.220Z,5.20
2017-03-28T06:18:30.831Z,5.40
2017-03-28T06:19:29.325Z,5.40
2017-03-28T06:20:27.801Z,5.50
2017-03-28T06:21:26.308Z,5.70
2017-03-28T06:22:24.820Z,5.70
2017-03-28T06:23:24.058Z,5.90
2017-03-28T06:24:22.936Z,5.80
2017-03-28T06:25:21.402Z,6.00
2017-03-28T06:26:19.968Z,6.20
2017-03-28T06:27:18.462Z,6.30
2017-03-28T06:28:18.314Z,6.50
2017-03-28T06:29:17.246Z,6.80
2017-03-28T06:30:16.907Z,7.30
2017-03-28T06:31:15.373Z,7.30
2017-03-28T06:32:13.878Z,7.60
2017-03-28T06:33:13.150Z,8.30
2017-03-28T06:34:11.632Z,8.20
2017-03-28T06:35:10.139Z,8.70
2017-03-28T06:36:09.751Z,9.40
2017-03-28T06:37:08.249Z,9.40
2017-03-28T06:38:07.492Z,10.40
2017-03-28T06:39:05.981Z,10.30
2017-03-28T06:40:05.362Z,11.10
2017-03-28T06:41:03.873Z,11.10
2017-03-28T06:42:02.681Z,11.40
2017-03-28T06:43:01.153Z,11.70
2017-03-28T06:44:01.133Z,12.40
2017-03-28T06:44:59.645Z,12.40
2017-03-28T06:45:58.890Z,13.00
2017-03-28T06:46:57.351Z,12.90
2017-03-28T06:47:56.245Z,13.40
2017-03-28T06:48:55.485Z,14.20
2017-03-28T06:49:53.957Z,14.10
2017-03-28T06:50:52.466Z,14.50
2017-03-28T06:51:50.955Z,14.90
2017-03-28T06:52:49.427Z,15.10
2017-03-28T06:53:49.017Z,15.60
2017-03-28T06:54:48.240Z,15.90
2017-03-28T06:55:46.724Z,15.80
2017-03-28T06:56:45.198Z,16.00
2017-03-28T06:57:44.435Z,16.50
2017-03-28T06:58:42.911Z,16.50
2017-03-28T06:59:41.685Z,16.70
2017-03-28T07:00:40.206Z,16.80
2017-03-28T07:01:39.460Z,17.20
2017-03-28T07:02:44.303Z,17.20
2017-03-28T07:03:43.541Z,17.70
2017-03-28T07:04:43.256Z,17.80
2017-03-28T07:05:41.840Z,17.80
2017-03-28T07:06:40.376Z,17.90
2017-03-28T07:07:38.875Z,17.80
2017-03-28T07:08:37.333Z,18.00
2017-03-28T07:09:36.566Z,18.00
2017-03-28T07:10:35.442Z,18.00
2017-03-28T07:11:33.912Z,18.20
2017-03-28T07:12:32.385Z,18.30
2017-03-28T07:13:30.892Z,18.20
2017-03-28T07:14:29.390Z,18.30
2017-03-28T07:15:28.022Z,18.30
2017-03-28T07:16:26.867Z,18.30
2017-03-28T07:17:25.406Z,18.30
2017-03-28T07:18:23.961Z,18.20
2017-03-28T07:19:22.705Z,18.20
2017-03-28T07:20:21.182Z,18.20
2017-03-28T07:21:19.721Z,18.30
2017-03-28T07:22:18.573Z,18.40
2017-03-28T07:23:17.927Z,18.40
2017-03-28T07:24:16.442Z,18.40
2017-03-28T07:25:15.687Z,18.70
2017-03-28T07:26:14.951Z,18.80
2017-03-28T07:27:13.523Z,18.80
2017-03-28T07:28:12.336Z,19.00
2017-03-28T07:29:10.804Z,19.10
2017-03-28T07:30:09.339Z,19.50
2017-03-28T07:31:07.865Z,19.70
2017-03-28T07:32:06.381Z,19.90
2017-03-28T07:33:05.614Z,20.00
2017-03-28T07:34:04.370Z,20.00
2017-03-28T07:35:02.909Z,20.50
2017-03-28T07:36:01.437Z,20.80
2017-03-28T07:36:59.945Z,21.20
2017-03-28T07:37:58.452Z,21.40
2017-03-28T07:38:57.727Z,21.10
2017-03-28T07:39:57.386Z,20.90
2017-03-28T07:40:55.880Z,20.80
2017-03-28T07:41:54.353Z,20.90
2017-03-28T07:42:53.598Z,21.30
2017-03-28T07:43:52.069Z,21.20
2017-03-28T07:44:50.553Z,21.40
2017-03-28T07:45:49.420Z,21.50
2017-03-28T07:46:47.998Z,21.80
2017-03-28T07:47:46.471Z,21.70
2017-03-28T07:48:44.938Z,21.20
2017-03-28T07:49:44.206Z,21.50
2017-03-28T07:50:42.694Z,21.40
2017-03-28T07:51:42.348Z,21.50
2017-03-28T07:52:41.566Z,21.80
2017-03-28T07:53:40.038Z,21.80
2017-03-28T07:54:39.341Z,22.40
2017-03-28T07:55:37.817Z,22.30
2017-03-28T07:56:36.288Z,22.50
2017-03-28T07:57:35.900Z,22.70
2017-03-28T07:58:34.414Z,22.60
2017-03-28T07:59:33.653Z,23.40
2017-03-28T08:00:32.906Z,23.50
2017-03-28T08:01:32.146Z,23.50
2017-03-28T08:02:30.612Z,23.50
2017-03-28T08:03:30.168Z,23.80
2017-03-28T08:04:28.668Z,23.70
2017-03-28T08:05:27.136Z,23.80
2017-03-28T08:06:25.679Z,24.10
2017-03-28T08:07:24.156Z,24.30
2017-03-28T08:08:22.693Z,24.20
2017-03-28T08:09:21.492Z,24.30
2017-03-28T08:10:20.003Z,24.40
2017-03-28T08:11:19.252Z,24.70
2017-03-28T08:12:17.804Z,24.70
2017-03-28T08:13:16.298Z,24.70
2017-03-28T08:14:15.590Z,24.40
2017-03-28T08:15:15.171Z,24.40
2017-03-28T08:16:14.413Z,24.10
2017-03-28T08:17:12.881Z,24.10
2017-03-28T08:18:11.389Z,23.90
2017-03-28T08:19:10.646Z,23.40
2017-03-28T08:20:09.911Z,23.80
2017-03-28T08:21:08.717Z,23.70
2017-03-28T08:22:07.985Z,24.00
2017-03-28T08:23:06.468Z,23.90
2017-03-28T08:24:05.754Z,24.00
2017-03-28T08:25:05.020Z,24.00
2017-03-28T08:26:03.504Z,23.90
2017-03-28T08:27:03.043Z,23.30
2017-03-28T08:28:01.528Z,23.20
2017-03-28T08:29:00.020Z,23.30
2017-03-28T08:29:58.496Z,23.40
2017-03-28T08:30:57.749Z,23.20
2017-03-28T08:31:56.990Z,23.30
2017-03-28T08:32:55.782Z,23.20
2017-03-28T08:33:54.358Z,23.50
2017-03-28T08:34:53.574Z,23.80
2017-03-28T08:35:52.045Z,23.70
2017-03-28T08:36:51.341Z,24.00
2017-03-28T08:37:50.591Z,24.00
2017-03-28T08:38:49.389Z,23.90
2017-03-28T08:39:48.654Z,24.50
2017-03-28T08:40:47.120Z,24.40
2017-03-28T08:41:45.601Z,24.50
2017-03-28T08:42:44.866Z,25.00
2017-03-28T08:43:43.384Z,24.90
2017-03-28T08:44:42.169Z,24.70
2017-03-28T08:45:40.664Z,24.60
2017-03-28T08:46:39.139Z,24.80
2017-03-28T08:47:38.401Z,24.80
2017-03-28T08:48:36.888Z,24.70
2017-03-28T08:49:35.336Z,24.40
2017-03-28T08:50:34.133Z,24.00
2017-03-28T08:51:33.382Z,24.20
2017-03-28T08:52:31.887Z,24.20
2017-03-28T08:53:31.124Z,24.50
2017-03-28T08:54:29.613Z,24.40
2017-03-28T08:55:28.064Z,24.90
2017-03-28T08:56:26.919Z,25.00
2017-03-28T08:57:25.617Z,24.30
2017-03-28T08:58:24.103Z,24.00
2017-03-28T08:59:23.383Z,24.20
2017-03-28T09:00:22.021Z,24.20
2017-03-28T09:01:20.530Z,23.80
2017-03-28T09:02:20.284Z,23.90
2017-03-28T09:03:18.812Z,23.90
2017-03-28T09:04:17.319Z,23.90
2017-03-28T09:05:15.812Z,23.90
2017-03-28T09:06:15.071Z,24.20
2017-03-28T09:07:14.357Z,24.50
2017-03-28T09:08:13.129Z,24.50
2017-03-28T09:09:18.297Z,25.00
2017-03-28T09:10:16.770Z,25.30
2017-03-28T09:11:15.298Z,25.20
2017-03-28T09:12:14.551Z,25.40
2017-03-28T09:13:13.425Z,25.40
2017-03-28T09:14:11.897Z,25.60
2017-03-28T09:15:10.364Z,25.40
2017-03-28T09:16:08.825Z,25.30
2017-03-28T09:17:07.321Z,25.50
2017-03-28T09:18:06.581Z,25.30
2017-03-28T09:19:05.422Z,25.30
2017-03-28T09:20:03.912Z,25.40
2017-03-28T09:21:02.378Z,25.30
2017-03-28T09:22:00.869Z,25.30
2017-03-28T09:23:00.097Z,24.80
2017-03-28T09:23:58.602Z,24.70
2017-03-28T09:24:57.374Z,24.30
2017-03-28T09:25:56.655Z,24.60
2017-03-28T09:26:55.955Z,24.60
2017-03-28T09:27:54.453Z,24.50
2017-03-28T09:28:55.940Z,24.70
2017-03-28T09:29:54.478Z,24.80
2017-03-28T09:30:53.280Z,25.20
2017-03-28T09:31:52.528Z,25.40
2017-03-28T09:32:51.033Z,25.40
2017-03-28T09:33:49.512Z,25.70
2017-03-28T09:34:48.764Z,26.00
2017-03-28T09:35:47.912Z,26.00
2017-03-28T09:36:46.790Z,26.20
2017-03-28T09:37:45.347Z,26.00
2017-03-28T09:38:44.592Z,26.50
2017-03-28T09:39:43.077Z,26.40
2017-03-28T09:40:41.593Z,26.30
2017-03-28T09:41:40.110Z,26.40
2017-03-28T09:42:39.664Z,26.10
2017-03-28T09:43:38.150Z,26.00
2017-03-28T09:44:37.396Z,25.40
2017-03-28T09:45:36.000Z,25.40
2017-03-28T09:46:34.469Z,25.30
2017-03-28T09:47:33.731Z,24.90
2017-03-28T09:48:32.685Z,24.90
2017-03-28T09:49:31.166Z,25.00
2017-03-28T09:50:29.678Z,24.90
2017-03-28T09:51:28.899Z,24.90
2017-03-28T09:52:27.382Z,24.90
2017-03-28T09:53:25.861Z,24.90
2017-03-28T09:54:24.712Z,24.80
2017-03-28T09:55:23.972Z,24.80
2017-03-28T09:56:22.475Z,24.80
2017-03-28T09:57:21.756Z,25.50
2017-03-28T09:58:20.280Z,25.40
2017-03-28T09:59:18.801Z,25.70
2017-03-28T10:00:17.746Z,25.60
2017-03-28T10:01:16.210Z,25.60
2017-03-28T10:02:14.714Z,25.70
2017-03-28T10:03:13.209Z,25.70
2017-03-28T10:04:11.704Z,25.90
2017-03-28T10:05:10.235Z,26.20
2017-03-28T10:06:09.039Z,26.40
2017-03-28T10:08:07.829Z,26.70
2017-03-28T10:09:06.306Z,26.70
2017-03-28T10:10:04.782Z,26.60
2017-03-28T10:11:03.238Z,26.50
2017-03-28T10:12:01.993Z,26.30
2017-03-28T10:13:00.508Z,26.20
2017-03-28T10:13:59.740Z,25.90
2017-03-28T10:14:58.429Z,25.80
2017-03-28T10:15:56.915Z,25.70
2017-03-28T10:16:56.153Z,25.90
2017-03-28T10:17:54.888Z,25.80
2017-03-28T10:18:53.371Z,26.00
2017-03-28T10:19:51.853Z,26.10
2017-03-28T10:20:50.345Z,26.30
2017-03-28T10:21:48.840Z,26.20
2017-03-28T10:22:48.177Z,26.10
2017-03-28T10:23:47.048Z,26.10
2017-03-28T10:24:45.541Z,26.20
2017-03-28T10:25:44.011Z,26.20
2017-03-28T10:26:42.484Z,26.20
2017-03-28T10:27:41.733Z,25.90
2017-03-28T10:28:40.217Z,25.80
2017-03-28T10:29:38.997Z,25.70
2017-03-28T10:30:37.490Z,25.60
2017-03-28T10:31:35.962Z,25.50
2017-03-28T10:32:34.437Z,25.50
2017-03-28T10:33:33.667Z,25.80
2017-03-28T10:34:32.149Z,25.80
2017-03-28T10:35:31.997Z,25.60
2017-03-28T10:36:30.469Z,25.60
2017-03-28T10:37:29.693Z,25.20
2017-03-28T10:38:29.009Z,24.80
2017-03-28T10:39:27.469Z,24.70
2017-03-28T10:40:25.968Z,24.80
2017-03-28T10:41:24.828Z,24.80
2017-03-28T10:42:23.326Z,24.70
2017-03-28T10:43:21.813Z,24.80
2017-03-28T10:44:21.078Z,25.10
2017-03-28T10:45:19.532Z,25.00
2017-03-28T10:46:18.007Z,25.30
2017-03-28T10:47:16.961Z,25.50
2017-03-28T10:48:15.443Z,25.70
2017-03-28T10:49:13.945Z,26.10
2017-03-28T10:50:13.236Z,25.90
2017-03-28T10:51:12.450Z,25.80
2017-03-28T10:52:10.925Z,25.70
2017-03-28T10:53:09.684Z,25.90
2017-03-28T10:54:08.924Z,25.90
2017-03-28T10:55:08.182Z,26.10
2017-03-28T10:56:07.412Z,25.80
2017-03-28T10:57:05.868Z,25.70
2017-03-28T10:58:04.355Z,25.70
2017-03-28T10:59:03.257Z,25.90
2017-03-28T11:00:01.732Z,26.10
2017-03-28T11:01:00.221Z,26.30
2017-03-28T11:01:59.489Z,26.50
2017-03-28T11:02:58.010Z,26.50
2017-03-28T11:03:57.273Z,26.60
2017-03-28T11:04:56.070Z,26.50
2017-03-28T11:05:54.525Z,26.60
2017-03-28T11:06:53.775Z,26.80
2017-03-28T11:07:53.001Z,26.90
2017-03-28T11:08:51.472Z,26.80
2017-03-28T11:09:49.953Z,26.90
2017-03-28T11:10:48.809Z,26.90
2017-03-28T11:11:47.283Z,26.90
2017-03-28T11:12:45.736Z,27.00
2017-03-28T11:13:44.250Z,27.00
2017-03-28T11:14:43.501Z,26.50
2017-03-28T11:15:41.985Z,26.40
2017-03-28T11:16:40.768Z,26.40
2017-03-28T11:17:40.032Z,26.50
2017-03-28T11:18:39.300Z,26.50
2017-03-28T11:19:37.766Z,26.50
2017-03-28T11:20:36.232Z,26.30
2017-03-28T11:21:34.705Z,26.10
2017-03-28T11:22:33.460Z,26.10
2017-03-28T11:23:31.992Z,26.10
2017-03-28T11:24:30.478Z,26.10
2017-03-28T11:25:28.939Z,26.10
2017-03-28T11:26:27.421Z,26.10
2017-03-28T11:27:25.911Z,26.20
2017-03-28T11:28:25.130Z,26.30
2017-03-28T11:29:24.352Z,26.20
2017-03-28T11:30:23.117Z,26.10
2017-03-28T11:31:21.628Z,26.20
2017-03-28T11:32:20.096Z,26.30
2017-03-28T11:33:19.344Z,26.30
2017-03-28T11:34:18.936Z,26.50
2017-03-28T11:35:17.449Z,26.40
2017-03-28T11:36:16.660Z,26.30
2017-03-28T11:37:15.142Z,26.20
2017-03-28T11:38:13.643Z,26.30
2017-03-28T11:39:12.901Z,26.00
2017-03-28T11:40:12.466Z,25.80
2017-03-28T11:41:10.969Z,25.70
2017-03-28T11:42:09.468Z,25.70
2017-03-28T11:43:08.852Z,25.80
2017-03-28T11:44:08.093Z,25.80
2017-03-28T11:45:06.574Z,25.70
2017-03-28T11:46:05.400Z,25.70
2017-03-28T11:47:03.888Z,25.30
2017-03-28T11:48:02.389Z,24.90
2017-03-28T11:49:01.639Z,25.10
2017-03-28T11:50:00.124Z,25.10
2017-03-28T11:50:58.585Z,24.70
2017-03-28T11:51:57.429Z,24.50
2017-03-28T11:52:56.672Z,23.80
2017-03-28T11:53:55.949Z,24.00
2017-03-28T11:54:55.192Z,24.10
2017-03-28T11:55:53.681Z,24.00
2017-03-28T11:56:52.164Z,24.30
2017-03-28T11:57:51.707Z,24.60
2017-03-28T11:58:50.213Z,24.60
2017-03-28T11:59:49.447Z,24.60
2017-03-28T12:00:48.680Z,24.70
2017-03-28T12:01:47.923Z,24.80
2017-03-28T12:02:46.385Z,24.70
2017-03-28T12:03:45.277Z,24.80
2017-03-28T12:04:43.773Z,24.90
2017-03-28T12:05:43.009Z,24.70
2017-03-28T12:06:41.496Z,24.60
2017-03-28T12:07:39.988Z,24.80
2017-03-28T12:08:39.240Z,24.90
2017-03-28T12:09:38.100Z,24.90
2017-03-28T12:10:36.572Z,24.70
2017-03-28T12:11:41.600Z,24.70
2017-03-28T12:12:40.067Z,24.60
2017-03-28T12:13:38.535Z,24.60
2017-03-28T12:14:37.056Z,24.60
2017-03-28T12:15:35.952Z,24.60
2017-03-28T12:16:34.443Z,24.30
2017-03-28T12:17:32.940Z,24.10
2017-03-28T12:18:32.199Z,24.10
2017-03-28T12:19:31.461Z,24.30
2017-03-28T12:20:29.944Z,24.20
2017-03-28T12:21:28.776Z,24.30
2017-03-28T12:22:27.235Z,24.40
2017-03-28T12:23:25.724Z,24.50
2017-03-28T12:24:24.218Z,24.30
2017-03-28T12:25:23.494Z,24.30
2017-03-28T12:26:21.994Z,24.30
2017-03-28T12:27:20.770Z,24.40
2017-03-28T12:28:19.221Z,24.30
2017-03-28T12:29:17.709Z,24.30
2017-03-28T12:30:16.212Z,24.10
2017-03-28T12:31:14.674Z,23.80
2017-03-28T12:32:13.175Z,23.90
2017-03-28T12:33:12.945Z,24.20
2017-03-28T12:34:11.420Z,24.10
2017-03-28T12:35:09.876Z,24.40
2017-03-28T12:36:08.335Z,24.40
2017-03-28T12:37:07.581Z,24.60
2017-03-28T12:38:06.066Z,24.60
2017-03-28T12:39:05.037Z,24.40
2017-03-28T12:40:04.346Z,24.60
2017-03-28T12:41:02.841Z,24.60
2017-03-28T12:42:02.087Z,25.20
2017-03-28T12:43:00.552Z,25.10
2017-03-28T12:43:59.024Z,25.30
2017-03-28T12:44:57.978Z,25.50
2017-03-28T12:45:57.224Z,25.90
2017-03-28T12:46:55.718Z,25.80
2017-03-28T12:47:54.196Z,26.00
2017-03-28T12:48:52.675Z,26.10
2017-03-28T12:49:51.168Z,26.20
2017-03-28T12:50:50.142Z,26.30
2017-03-28T12:51:48.706Z,26.30